createdAt,value
2019-03-10T00:00:18.207Z,0.90
2019-03-10T00:02:46.712Z,1.00
2019-03-10T00:05:15.247Z,1.07
2019-03-10T00:07:43.703Z,0.97
2019-03-10T00:10:12.325Z,1.10
2019-03-10T00:12:40.774Z,1.00
2019-03-10T00:15:11.371Z,1.10
2019-03-10T00:17:39.877Z,1.13
2019-03-10T00:20:11.817Z,1.30
2019-03-10T00:22:40.275Z,1.10
2019-03-10T00:25:10.119Z,1.00
2019-03-10T00:27:38.569Z,1.10
2019-03-10T00:30:17.863Z,1.40
2019-03-10T00:32:46.329Z,1.10
2019-03-10T00:35:14.861Z,1.53
2019-03-10T00:37:43.415Z,2.20
2019-03-10T00:40:34.568Z,2.00
2019-03-10T00:43:39.634Z,1.33
2019-03-10T00:46:30.619Z,1.17
2019-03-10T00:49:35.922Z,1.07
2019-03-10T00:52:07.390Z,1.13
2019-03-10T00:54:36.235Z,1.30
2019-03-10T00:57:04.807Z,1.30
2019-03-10T00:59:33.327Z,1.33
2019-03-10T01:02:01.862Z,1.27
2019-03-10T01:04:30.366Z,1.23
2019-03-10T01:06:58.890Z,1.67
2019-03-10T01:09:27.378Z,1.00
2019-03-10T01:11:55.938Z,1.20
2019-03-10T01:14:24.464Z,2.83
2019-03-10T01:16:52.954Z,1.07
2019-03-10T01:19:23.049Z,1.70
2019-03-10T01:21:51.928Z,1.90
2019-03-10T01:24:20.476Z,2.10
2019-03-10T01:26:48.956Z,1.53
2019-03-10T01:29:17.421Z,2.90
2019-03-10T01:32:05.593Z,2.00
2019-03-10T01:34:56.909Z,1.20
2019-03-10T01:37:25.414Z,1.30
2019-03-10T01:39:53.872Z,2.00
2019-03-10T01:42:22.341Z,3.20
2019-03-10T01:44:50.826Z,2.87
2019-03-10T01:47:19.289Z,1.60
2019-03-10T01:49:47.764Z,1.90
2019-03-10T01:52:16.255Z,2.17
2019-03-10T01:54:44.723Z,2.20
2019-03-10T01:57:13.164Z,1.73
2019-03-10T01:59:41.675Z,2.17
2019-03-10T02:02:10.134Z,2.00
2019-03-10T02:04:38.583Z,1.67
2019-03-10T02:07:07.090Z,2.03
2019-03-10T02:09:35.563Z,2.53
2019-03-10T02:12:04.014Z,2.00
2019-03-10T02:14:32.626Z,1.60
2019-03-10T02:17:01.135Z,1.20
2019-03-10T02:19:29.579Z,1.37
2019-03-10T02:21:58.065Z,3.07
2019-03-10T02:24:26.647Z,1.90
2019-03-10T02:26:55.107Z,2.63
2019-03-10T02:29:23.612Z,1.70
2019-03-10T02:31:52.058Z,1.70
2019-03-10T02:34:20.511Z,2.10
2019-03-10T02:36:49.009Z,2.43
2019-03-10T02:39:17.470Z,1.90
2019-03-10T02:41:45.928Z,2.50
2019-03-10T02:44:14.423Z,2.20
2019-03-10T02:46:42.865Z,2.20
2019-03-10T02:49:11.336Z,2.30
2019-03-10T02:51:39.834Z,2.17
2019-03-10T02:54:08.293Z,2.77
2019-03-10T02:56:36.748Z,1.70
2019-03-10T02:59:05.239Z,2.33
2019-03-10T03:01:33.681Z,2.13
2019-03-10T03:04:02.146Z,2.43
2019-03-10T03:06:30.648Z,1.90
2019-03-10T03:08:59.126Z,2.23
2019-03-10T03:11:27.671Z,1.97
2019-03-10T03:13:56.157Z,2.03
2019-03-10T03:16:24.608Z,1.87
2019-03-10T03:18:53.055Z,1.93
2019-03-10T03:21:21.551Z,2.00
2019-03-10T03:23:50.010Z,2.40
2019-03-10T03:26:19.581Z,2.40
2019-03-10T03:28:48.074Z,1.70
2019-03-10T03:31:16.546Z,2.70
2019-03-10T03:33:45.002Z,1.73
2019-03-10T03:36:19.351Z,2.57
2019-03-10T03:38:56.541Z,1.70
2019-03-10T03:41:26.071Z,2.30
2019-03-10T03:43:54.542Z,3.00
2019-03-10T03:46:22.965Z,1.77
2019-03-10T03:48:51.457Z,1.93
2019-03-10T03:51:19.905Z,2.10
2019-03-10T03:53:48.410Z,3.93
2019-03-10T03:56:16.856Z,3.10
2019-03-10T03:58:45.323Z,1.33
2019-03-10T04:01:15.418Z,2.70
2019-03-10T04:03:44.002Z,2.00
2019-03-10T04:06:12.453Z,3.00
2019-03-10T04:08:40.925Z,2.13
2019-03-10T04:11:09.387Z,1.93
2019-03-10T04:13:37.845Z,2.23
2019-03-10T04:16:06.294Z,2.40
2019-03-10T04:18:34.778Z,1.63
2019-03-10T04:21:03.234Z,2.93
2019-03-10T04:23:31.690Z,1.80
2019-03-10T04:26:00.161Z,2.07
2019-03-10T04:28:28.923Z,1.97
2019-03-10T04:30:57.376Z,2.20
2019-03-10T04:33:25.849Z,1.57
2019-03-10T04:35:54.297Z,2.17
2019-03-10T04:38:22.762Z,2.40
2019-03-10T04:40:51.253Z,1.70
2019-03-10T04:43:19.726Z,2.03
2019-03-10T04:45:48.189Z,3.00
2019-03-10T04:48:16.679Z,1.20
2019-03-10T04:50:45.144Z,2.10
2019-03-10T04:53:13.613Z,2.33
2019-03-10T04:55:46.398Z,1.80
2019-03-10T04:58:16.436Z,3.10
2019-03-10T05:00:46.524Z,1.53
2019-03-10T05:03:15.015Z,1.37
2019-03-10T05:05:43.490Z,3.40
2019-03-10T05:08:11.952Z,3.70
2019-03-10T05:10:40.446Z,2.27
2019-03-10T05:13:08.893Z,2.50
2019-03-10T05:15:37.356Z,3.10
2019-03-10T05:18:05.909Z,2.10
2019-03-10T05:20:34.366Z,2.50
2019-03-10T05:23:28.135Z,2.40
2019-03-10T05:25:57.027Z,3.07
2019-03-10T05:28:25.476Z,3.00
2019-03-10T05:30:54.075Z,2.93
2019-03-10T05:33:22.536Z,3.10
2019-03-10T05:35:50.989Z,3.80
2019-03-10T05:38:19.568Z,2.80
2019-03-10T05:40:48.021Z,2.23
2019-03-10T05:43:16.489Z,3.10
2019-03-10T05:45:44.997Z,2.27
2019-03-10T05:48:13.443Z,2.70
2019-03-10T05:50:41.892Z,2.63
2019-03-10T05:53:10.412Z,2.80
2019-03-10T05:55:38.890Z,3.03
2019-03-10T05:58:07.341Z,2.67
2019-03-10T06:00:42.804Z,2.80
2019-03-10T06:03:06.018Z,2.67
2019-03-10T06:05:34.488Z,2.90
2019-03-10T06:08:02.984Z,1.80
2019-03-10T06:10:31.450Z,2.40
2019-03-10T06:12:59.973Z,2.63
2019-03-10T06:15:28.467Z,1.93
2019-03-10T06:17:56.925Z,2.97
2019-03-10T06:20:25.371Z,2.80
2019-03-10T06:22:53.875Z,2.60
2019-03-10T06:25:22.345Z,2.10
2019-03-10T06:27:50.844Z,5.53
2019-03-10T06:30:19.334Z,3.47
2019-03-10T06:32:47.912Z,5.03
2019-03-10T06:35:16.370Z,4.50
2019-03-10T06:37:44.885Z,3.30
2019-03-10T06:40:14.000Z,2.27
2019-03-10T06:42:42.471Z,2.50
2019-03-10T06:45:11.038Z,2.87
2019-03-10T06:47:39.476Z,2.60
2019-03-10T06:50:12.245Z,2.23
2019-03-10T06:52:40.486Z,2.43
2019-03-10T06:55:09.032Z,2.40
2019-03-10T06:57:37.480Z,2.13
2019-03-10T07:00:09.394Z,2.80
2019-03-10T07:02:37.864Z,2.23
2019-03-10T07:05:08.652Z,2.27
2019-03-10T07:07:37.138Z,2.17
2019-03-10T07:10:15.772Z,2.43
2019-03-10T07:12:44.261Z,2.47
2019-03-10T07:15:13.750Z,1.70
2019-03-10T07:17:42.217Z,2.60
2019-03-10T07:20:16.527Z,2.13
2019-03-10T07:22:44.972Z,2.17
2019-03-10T07:25:13.516Z,1.70
2019-03-10T07:27:58.743Z,1.70
2019-03-10T07:30:31.645Z,2.60
2019-03-10T07:33:04.485Z,2.53
2019-03-10T07:35:35.026Z,2.67
2019-03-10T07:38:07.971Z,1.80
2019-03-10T07:40:38.127Z,3.13
2019-03-10T07:43:08.223Z,2.30
2019-03-10T07:45:41.214Z,3.20
2019-03-10T07:48:14.065Z,3.60
2019-03-10T07:50:49.649Z,3.37
2019-03-10T07:53:32.021Z,3.40
2019-03-10T07:56:17.470Z,3.30
2019-03-10T07:58:56.484Z,2.77
2019-03-10T08:01:26.582Z,1.57
2019-03-10T08:03:59.403Z,2.70
2019-03-10T08:06:38.711Z,3.40
2019-03-10T08:09:25.701Z,3.83
2019-03-10T08:12:04.630Z,3.57
2019-03-10T08:14:34.741Z,3.40
2019-03-10T08:17:11.028Z,3.07
2019-03-10T08:19:41.142Z,4.10
2019-03-10T08:22:20.264Z,2.33
2019-03-10T08:25:06.702Z,3.67
2019-03-10T08:27:36.843Z,5.50
2019-03-10T08:30:15.805Z,5.43
2019-03-10T08:32:45.984Z,5.80
2019-03-10T08:35:19.043Z,3.13
2019-03-10T08:38:05.501Z,3.13
2019-03-10T08:40:38.370Z,3.60
2019-03-10T08:43:08.470Z,2.73
2019-03-10T08:45:56.621Z,3.70
2019-03-10T08:48:29.185Z,3.40
2019-03-10T08:50:59.299Z,3.53
2019-03-10T08:53:38.675Z,3.27
2019-03-10T08:56:11.688Z,3.20
2019-03-10T08:58:41.789Z,3.33
2019-03-10T09:01:28.488Z,3.87
2019-03-10T09:03:58.576Z,2.90
2019-03-10T09:06:40.942Z,4.23
2019-03-10T09:09:11.033Z,3.60
2019-03-10T09:11:57.483Z,2.70
2019-03-10T09:14:36.423Z,2.73
2019-03-10T09:17:06.549Z,2.63
2019-03-10T09:19:45.587Z,3.10
2019-03-10T09:22:51.268Z,3.70
2019-03-10T09:25:37.471Z,2.70
2019-03-10T09:28:07.600Z,3.03
2019-03-10T09:30:50.878Z,2.77
2019-03-10T09:33:23.925Z,3.57
2019-03-10T09:35:54.012Z,3.80
2019-03-10T09:38:39.466Z,3.30
2019-03-10T09:41:24.479Z,3.33
2019-03-10T09:44:03.951Z,4.10
2019-03-10T09:46:43.016Z,3.57
2019-03-10T09:49:16.349Z,4.17
2019-03-10T09:51:46.448Z,3.40
2019-03-10T09:54:28.557Z,3.73
2019-03-10T09:57:07.748Z,4.10
2019-03-10T09:59:54.543Z,3.53
2019-03-10T10:02:27.293Z,2.47
2019-03-10T10:05:09.087Z,3.90
2019-03-10T10:07:54.171Z,4.30
2019-03-10T10:10:24.316Z,3.03
2019-03-10T10:12:54.430Z,3.40
2019-03-10T10:15:42.703Z,3.53
2019-03-10T10:18:21.286Z,3.50
2019-03-10T10:20:57.161Z,3.77
2019-03-10T10:23:33.050Z,4.00
2019-03-10T10:26:05.913Z,2.90
2019-03-10T10:28:47.892Z,4.47
2019-03-10T10:31:33.991Z,4.63
2019-03-10T10:34:19.243Z,3.43
2019-03-10T10:37:04.352Z,3.80
2019-03-10T10:39:49.442Z,4.00
2019-03-10T10:42:25.259Z,2.90
2019-03-10T10:45:01.501Z,3.03
2019-03-10T10:47:34.239Z,2.97
2019-03-10T10:50:13.971Z,2.90
2019-03-10T10:52:44.229Z,4.20
2019-03-10T10:55:17.060Z,3.93
2019-03-10T10:57:49.637Z,4.53
2019-03-10T11:00:19.810Z,2.53
2019-03-10T11:02:52.850Z,3.67
2019-03-10T11:05:23.021Z,3.03
2019-03-10T11:07:53.125Z,2.67
2019-03-10T11:10:23.243Z,2.57
2019-03-10T11:12:53.381Z,2.50
2019-03-10T11:15:25.993Z,2.00
2019-03-10T11:18:09.761Z,3.00
2019-03-10T11:20:40.035Z,2.97
2019-03-10T11:23:10.139Z,2.77
2019-03-10T11:25:40.284Z,3.20
2019-03-10T11:28:26.487Z,2.87
2019-03-10T11:30:56.621Z,3.13
2019-03-10T11:33:29.646Z,2.70
2019-03-10T11:36:11.719Z,3.47
2019-03-10T11:39:00.049Z,3.40
2019-03-10T11:41:34.088Z,3.20
2019-03-10T11:44:14.281Z,3.80
2019-03-10T11:46:47.098Z,3.17
2019-03-10T11:49:17.222Z,3.40
2019-03-10T11:51:47.307Z,3.23
2019-03-10T11:54:25.975Z,2.73
2019-03-10T11:57:05.040Z,2.90
2019-03-10T11:59:35.162Z,2.30
2019-03-10T12:02:16.180Z,3.13
2019-03-10T12:04:42.581Z,2.70
2019-03-10T12:07:12.695Z,3.03
2019-03-10T12:09:41.132Z,3.57
2019-03-10T12:12:09.597Z,2.57
2019-03-10T12:14:38.073Z,3.00
2019-03-10T12:17:06.541Z,2.27
2019-03-10T12:19:35.056Z,2.13
2019-03-10T12:22:03.524Z,2.17
2019-03-10T12:24:31.989Z,2.67
2019-03-10T12:27:00.462Z,3.90
2019-03-10T12:29:28.905Z,3.30
2019-03-10T12:31:57.363Z,3.63
2019-03-10T12:34:25.854Z,4.10
2019-03-10T12:36:54.313Z,3.63
2019-03-10T12:39:22.784Z,3.10
2019-03-10T12:41:58.577Z,2.80
2019-03-10T12:44:22.526Z,3.40
2019-03-10T12:46:51.014Z,3.40
2019-03-10T12:49:20.405Z,2.67
2019-03-10T12:51:48.872Z,3.10
2019-03-10T12:54:17.338Z,3.20
2019-03-10T12:56:45.872Z,4.07
2019-03-10T12:59:14.310Z,2.80
2019-03-10T13:01:42.757Z,3.30
2019-03-10T13:04:11.258Z,4.73
2019-03-10T13:06:39.729Z,3.27
2019-03-10T13:09:08.650Z,3.67
2019-03-10T13:11:37.188Z,5.97
2019-03-10T13:14:05.656Z,3.33
2019-03-10T13:16:34.112Z,3.80
2019-03-10T13:19:02.619Z,4.17
2019-03-10T13:21:31.089Z,2.63
2019-03-10T13:23:59.619Z,4.47
2019-03-10T13:26:28.124Z,4.83
2019-03-10T13:28:56.595Z,4.23
2019-03-10T13:31:25.063Z,3.37
2019-03-10T13:33:53.552Z,3.30
2019-03-10T13:36:22.018Z,2.13
2019-03-10T13:38:50.477Z,2.83
2019-03-10T13:41:19.072Z,3.33
2019-03-10T13:43:47.683Z,5.17
2019-03-10T13:46:16.147Z,2.87
2019-03-10T13:48:44.662Z,2.53
2019-03-10T13:51:13.127Z,4.00
2019-03-10T13:53:41.581Z,2.70
2019-03-10T13:56:10.074Z,2.60
2019-03-10T13:58:38.541Z,2.60
2019-03-10T14:01:06.998Z,2.33
2019-03-10T14:03:35.485Z,2.10
2019-03-10T14:06:04.013Z,2.70
2019-03-10T14:08:32.470Z,2.87
2019-03-10T14:11:00.975Z,2.90
2019-03-10T14:13:29.432Z,2.67
2019-03-10T14:15:57.917Z,2.23
2019-03-10T14:18:26.388Z,2.87
2019-03-10T14:20:54.847Z,3.23
2019-03-10T14:23:23.308Z,2.10
2019-03-10T14:25:51.819Z,3.03
2019-03-10T14:28:22.068Z,2.83
2019-03-10T14:30:50.466Z,2.07
2019-03-10T14:33:18.958Z,1.77
2019-03-10T14:35:47.424Z,2.50
2019-03-10T14:38:15.894Z,2.13
2019-03-10T14:40:44.400Z,4.10
2019-03-10T14:43:12.860Z,2.87
2019-03-10T14:45:42.317Z,2.37
2019-03-10T14:48:10.800Z,3.10
2019-03-10T14:50:39.262Z,2.60
2019-03-10T14:53:07.724Z,2.90
2019-03-10T14:55:36.375Z,2.70
2019-03-10T14:58:04.842Z,2.20
2019-03-10T15:00:33.304Z,3.03
2019-03-10T15:03:01.795Z,3.40
2019-03-10T15:05:30.256Z,2.70
2019-03-10T15:07:58.714Z,2.87
2019-03-10T15:10:27.203Z,2.00
2019-03-10T15:12:55.680Z,3.20
2019-03-10T15:15:24.124Z,2.30
2019-03-10T15:17:52.626Z,3.23
2019-03-10T15:20:21.834Z,2.90
2019-03-10T15:22:50.495Z,2.40
2019-03-10T15:25:20.243Z,3.00
2019-03-10T15:27:48.683Z,3.17
2019-03-10T15:30:18.772Z,3.13
2019-03-10T15:32:47.273Z,2.90
2019-03-10T15:35:15.797Z,2.87
2019-03-10T15:37:44.387Z,2.60
2019-03-10T15:40:18.084Z,3.20
2019-03-10T15:42:46.538Z,2.67
2019-03-10T15:45:18.895Z,2.40
2019-03-10T15:47:48.463Z,2.80
2019-03-10T15:50:28.222Z,2.40
2019-03-10T15:52:56.754Z,2.43
2019-03-10T15:55:25.214Z,2.83
2019-03-10T15:57:53.675Z,3.00
2019-03-10T16:00:24.294Z,3.00
2019-03-10T16:02:52.811Z,3.53
2019-03-10T16:05:21.346Z,3.30
2019-03-10T16:07:49.887Z,2.53
2019-03-10T16:10:18.484Z,4.03
2019-03-10T16:12:49.303Z,2.37
2019-03-10T16:15:21.969Z,3.50
2019-03-10T16:17:50.423Z,2.93
2019-03-10T16:20:18.866Z,3.40
2019-03-10T16:22:47.364Z,3.03
2019-03-10T16:25:16.862Z,2.60
2019-03-10T16:27:45.393Z,3.40
2019-03-10T16:30:19.845Z,3.03
2019-03-10T16:32:48.328Z,3.87
2019-03-10T16:35:17.004Z,3.70
2019-03-10T16:37:45.564Z,3.23
2019-03-10T16:40:17.203Z,3.40
2019-03-10T16:42:45.749Z,2.90
2019-03-10T16:45:19.403Z,4.03
2019-03-10T16:47:47.879Z,2.33
2019-03-10T16:50:18.588Z,3.30
2019-03-10T16:52:47.081Z,2.50
2019-03-10T16:55:15.676Z,2.80
2019-03-10T16:57:44.278Z,2.10
2019-03-10T17:00:12.927Z,1.53
2019-03-10T17:02:43.185Z,1.80
2019-03-10T17:05:18.976Z,1.57
2019-03-10T17:07:47.490Z,1.83
2019-03-10T17:10:17.684Z,1.87
2019-03-10T17:12:46.258Z,2.20
2019-03-10T17:15:18.959Z,1.73
2019-03-10T17:17:47.387Z,2.20
2019-03-10T17:20:19.355Z,1.33
2019-03-10T17:22:47.803Z,1.43
2019-03-10T17:25:16.783Z,1.90
2019-03-10T17:27:45.325Z,1.93
2019-03-10T17:30:21.621Z,1.70
2019-03-10T17:32:50.205Z,2.40
2019-03-10T17:35:19.391Z,2.40
2019-03-10T17:37:48.728Z,2.70
2019-03-10T17:40:22.286Z,3.77
2019-03-10T17:42:50.722Z,2.57
2019-03-10T17:45:20.319Z,3.10
2019-03-10T17:47:48.834Z,3.00
2019-03-10T17:50:18.143Z,3.57
2019-03-10T17:52:47.336Z,4.40
2019-03-10T17:55:17.372Z,3.47
2019-03-10T17:57:45.986Z,3.30
2019-03-10T18:00:17.738Z,3.13
2019-03-10T18:02:46.278Z,3.77
2019-03-10T18:05:14.819Z,6.67
2019-03-10T18:07:43.336Z,6.73
2019-03-10T18:10:18.544Z,6.20
2019-03-10T18:12:47.006Z,6.20
2019-03-10T18:15:18.713Z,4.97
2019-03-10T18:17:47.216Z,4.70
2019-03-10T18:20:20.854Z,5.70
2019-03-10T18:22:49.310Z,4.40
2019-03-10T18:25:17.864Z,4.73
2019-03-10T18:27:46.305Z,4.47
2019-03-10T18:30:19.861Z,4.70
2019-03-10T18:32:48.373Z,5.63
2019-03-10T18:35:16.892Z,5.73
2019-03-10T18:37:46.023Z,3.77
2019-03-10T18:40:21.412Z,5.00
2019-03-10T18:42:49.891Z,4.30
2019-03-10T18:45:19.586Z,5.10
2019-03-10T18:47:48.086Z,4.93
2019-03-10T18:50:18.459Z,5.77
2019-03-10T18:52:47.007Z,5.43
2019-03-10T18:55:16.823Z,6.57
2019-03-10T18:57:45.282Z,6.43
2019-03-10T19:00:24.848Z,6.07
2019-03-10T19:02:55.127Z,5.53
2019-03-10T19:05:23.653Z,5.00
2019-03-10T19:07:52.149Z,4.80
2019-03-10T19:10:20.618Z,4.10
2019-03-10T19:12:49.071Z,5.73
2019-03-10T19:15:24.723Z,4.47
2019-03-10T19:17:53.230Z,4.65
2019-03-10T19:20:21.694Z,5.20
2019-03-10T19:22:50.174Z,2.87
2019-03-10T19:25:19.653Z,4.00
2019-03-10T19:27:48.099Z,4.40
2019-03-10T19:30:21.220Z,3.60
2019-03-10T19:32:49.694Z,4.10
2019-03-10T19:35:18.239Z,3.73
2019-03-10T19:37:46.721Z,3.80
2019-03-10T19:40:18.982Z,3.90
2019-03-10T19:42:47.453Z,3.40
2019-03-10T19:45:18.141Z,3.43
2019-03-10T19:47:46.591Z,2.50
2019-03-10T19:50:17.554Z,3.20
2019-03-10T19:52:46.051Z,3.40
2019-03-10T19:55:15.894Z,3.83
2019-03-10T19:57:44.344Z,2.87
2019-03-10T20:00:15.549Z,2.90
2019-03-10T20:02:43.993Z,3.50
2019-03-10T20:05:12.980Z,4.20
2019-03-10T20:07:41.456Z,2.63
2019-03-10T20:10:21.415Z,3.00
2019-03-10T20:12:49.968Z,3.20
2019-03-10T20:15:19.746Z,2.97
2019-03-10T20:17:48.205Z,2.60
2019-03-10T20:20:27.643Z,3.13
2019-03-10T20:22:56.163Z,2.97
2019-03-10T20:25:24.606Z,3.67
2019-03-10T20:27:53.093Z,3.40
2019-03-10T20:30:22.685Z,2.73
2019-03-10T20:32:51.206Z,2.90
2019-03-10T20:35:19.718Z,3.10
2019-03-10T20:37:48.135Z,2.47
2019-03-10T20:40:22.693Z,2.53
2019-03-10T20:42:51.645Z,2.17
2019-03-10T20:45:20.159Z,2.80
2019-03-10T20:47:48.690Z,2.50
2019-03-10T20:50:19.271Z,2.83
2019-03-10T20:52:47.736Z,2.20
2019-03-10T20:55:16.373Z,2.37
2019-03-10T20:57:45.235Z,2.60
2019-03-10T21:00:27.945Z,1.03
2019-03-10T21:02:56.434Z,2.67
2019-03-10T21:05:24.889Z,2.30
2019-03-10T21:07:53.363Z,1.93
2019-03-10T21:10:23.074Z,2.50
2019-03-10T21:12:51.533Z,2.70
2019-03-10T21:15:22.176Z,2.53
2019-03-10T21:17:50.733Z,2.40
2019-03-10T21:20:20.329Z,2.20
2019-03-10T21:22:48.787Z,1.83
2019-03-10T21:25:20.083Z,2.00
2019-03-10T21:27:48.539Z,2.10
2019-03-10T21:30:22.432Z,2.70
2019-03-10T21:32:50.943Z,1.53
2019-03-10T21:35:19.397Z,2.00
2019-03-10T21:37:47.858Z,1.93
2019-03-10T21:40:19.166Z,1.97
2019-03-10T21:42:47.641Z,2.20
2019-03-10T21:45:16.330Z,1.80
2019-03-10T21:47:44.850Z,2.60
2019-03-10T21:50:15.339Z,1.80
2019-03-10T21:52:43.789Z,1.63
2019-03-10T21:55:13.742Z,2.33
2019-03-10T21:57:42.381Z,1.53
2019-03-10T22:00:17.091Z,1.17
2019-03-10T22:02:45.642Z,1.70
2019-03-10T22:05:15.251Z,1.70
2019-03-10T22:07:43.875Z,1.40
2019-03-10T22:10:26.373Z,1.97
2019-03-10T22:12:47.421Z,1.30
2019-03-10T22:15:19.068Z,2.03
2019-03-10T22:17:47.630Z,2.13
2019-03-10T22:20:19.811Z,1.67
2019-03-10T22:22:49.844Z,2.47
2019-03-10T22:25:19.788Z,2.67
2019-03-10T22:27:48.309Z,1.90
2019-03-10T22:30:18.774Z,2.20
2019-03-10T22:32:47.267Z,2.90
2019-03-10T22:35:15.778Z,2.80
2019-03-10T22:37:44.237Z,3.13
2019-03-10T22:40:17.938Z,2.70
2019-03-10T22:42:46.392Z,1.97
2019-03-10T22:45:19.827Z,2.27
2019-03-10T22:47:48.372Z,1.53
2019-03-10T22:50:17.695Z,2.27
2019-03-10T22:52:46.514Z,1.70
2019-03-10T22:55:15.758Z,1.83
2019-03-10T22:57:44.212Z,2.10
2019-03-10T23:00:18.154Z,1.73
2019-03-10T23:02:47.022Z,1.93
2019-03-10T23:05:15.553Z,2.23
2019-03-10T23:07:44.092Z,1.53
2019-03-10T23:10:14.486Z,1.40
2019-03-10T23:12:42.941Z,1.93
2019-03-10T23:15:13.325Z,1.57
2019-03-10T23:17:41.826Z,1.70
2019-03-10T23:20:14.702Z,1.70
2019-03-10T23:22:43.143Z,1.23
2019-03-10T23:25:11.780Z,1.50
2019-03-10T23:27:40.419Z,1.60
2019-03-10T23:30:12.329Z,1.80
2019-03-10T23:32:40.816Z,1.23
2019-03-10T23:35:09.346Z,2.23
2019-03-10T23:37:37.785Z,2.67
2019-03-10T23:40:08.981Z,1.50
2019-03-10T23:42:37.442Z,1.90
2019-03-10T23:45:11.314Z,2.20
2019-03-10T23:47:39.811Z,2.00
2019-03-10T23:50:10.417Z,1.80
2019-03-10T23:52:38.865Z,2.13
2019-03-10T23:55:09.388Z,2.40
2019-03-10T23:57:37.839Z,1.57
